sensor_id;sensor_type;location;lat;lon;timestamp;temperature;humidity
16767;DHT22;8501;49.926;8.404;2023-05-16T00:00:14;16.20;99.90
16767;DHT22;8501;49.926;8.404;2023-05-16T00:02:40;16.20;99.90
16767;DHT22;8501;49.926;8.404;2023-05-16T00:05:06;16.20;99.90
16767;DHT22;8501;49.926;8.404;2023-05-16T00:07:33;16.10;99.90
16767;DHT22;8501;49.926;8.404;2023-05-16T00:09:59;16.10;99.90
16767;DHT22;8501;49.926;8.404;2023-05-16T00:12:25;16.00;99.90
16767;DHT22;8501;49.926;8.404;2023-05-16T00:14:51;16.00;99.90
16767;DHT22;8501;49.926;8.404;2023-05-16T00:17:17;16.00;99.90
16767;DHT22;8501;49.926;8.404;2023-05-16T00:19:45;16.00;99.90
16767;DHT22;8501;49.926;8.404;2023-05-16T00:22:13;15.90;99.90
16767;DHT22;8501;49.926;8.404;2023-05-16T00:24:40;16.00;99.90
16767;DHT22;8501;49.926;8.404;2023-05-16T00:27:05;16.00;99.90
16767;DHT22;8501;49.926;8.404;2023-05-16T00:29:31;16.00;99.90
16767;DHT22;8501;49.926;8.404;2023-05-16T00:31:57;16.00;99.90
16767;DHT22;8501;49.926;8.404;2023-05-16T00:34:22;15.90;99.90
16767;DHT22;8501;49.926;8.404;2023-05-16T00:36:51;15.90;99.90
16767;DHT22;8501;49.926;8.404;2023-05-16T00:39:17;15.90;99.90
16767;DHT22;8501;49.926;8.404;2023-05-16T00:41:42;15.80;99.90
16767;DHT22;8501;49.926;8.404;2023-05-16T00:44:08;16.00;99.90
16767;DHT22;8501;49.926;8.404;2023-05-16T00:46:34;15.90;99.90
16767;DHT22;8501;49.926;8.404;2023-05-16T00:49:00;15.80;99.90
16767;DHT22;8501;49.926;8.404;2023-05-16T00:51:26;15.80;99.90
16767;DHT22;8501;49.926;8.404;2023-05-16T00:53:52;15.80;99.90
16767;DHT22;8501;49.926;8.404;2023-05-16T00:56:21;15.80;99.90
16767;DHT22;8501;49.926;8.404;2023-05-16T00:58:47;15.70;99.90
16767;DHT22;8501;49.926;8.404;2023-05-16T01:01:14;15.70;99.90
16767;DHT22;8501;49.926;8.404;2023-05-16T01:03:43;15.70;99.90
16767;DHT22;8501;49.926;8.404;2023-05-16T01:06:11;15.70;99.90
16767;DHT22;8501;49.926;8.404;2023-05-16T01:08:37;15.70;99.90
16767;DHT22;8501;49.926;8.404;2023-05-16T01:19:31;15.60;99.90
16767;DHT22;8501;49.926;8.404;2023-05-16T01:25:30;15.70;99.90
16767;DHT22;8501;49.926;8.404;2023-05-16T01:27:58;15.70;99.90
16767;DHT22;8501;49.926;8.404;2023-05-16T01:30:23;15.70;99.90
16767;DHT22;8501;49.926;8.404;2023-05-16T01:32:49;15.70;99.90
16767;DHT22;8501;49.926;8.404;2023-05-16T01:35:16;15.70;99.90
16767;DHT22;8501;49.926;8.404;2023-05-16T01:37:49;15.70;99.90
16767;DHT22;8501;49.926;8.404;2023-05-16T01:40:38;15.60;99.90
16767;DHT22;8501;49.926;8.404;2023-05-16T01:43:10;15.60;99.90
16767;DHT22;8501;49.926;8.404;2023-05-16T01:45:41;15.50;99.90
16767;DHT22;8501;49.926;8.404;2023-05-16T01:48:15;15.50;99.90
16767;DHT22;8501;49.926;8.404;2023-05-16T01:50:54;15.50;99.90
16767;DHT22;8501;49.926;8.404;2023-05-16T01:53:26;15.50;99.90
16767;DHT22;8501;49.926;8.404;2023-05-16T01:55:51;15.40;99.90
16767;DHT22;8501;49.926;8.404;2023-05-16T01:58:21;15.40;99.90
16767;DHT22;8501;49.926;8.404;2023-05-16T02:00:47;15.40;99.90
16767;DHT22;8501;49.926;8.404;2023-05-16T02:03:13;15.40;99.90
16767;DHT22;8501;49.926;8.404;2023-05-16T02:05:38;15.20;99.90
16767;DHT22;8501;49.926;8.404;2023-05-16T02:08:05;15.30;99.90
16767;DHT22;8501;49.926;8.404;2023-05-16T02:10:31;15.30;99.90
16767;DHT22;8501;49.926;8.404;2023-05-16T02:12:56;15.30;99.90
16767;DHT22;8501;49.926;8.404;2023-05-16T02:15:22;15.20;99.90
16767;DHT22;8501;49.926;8.404;2023-05-16T02:17:48;15.20;99.90
16767;DHT22;8501;49.926;8.404;2023-05-16T02:20:13;15.10;99.90
16767;DHT22;8501;49.926;8.404;2023-05-16T02:22:39;15.10;99.90
16767;DHT22;8501;49.926;8.404;2023-05-16T02:25:07;15.10;99.90
16767;DHT22;8501;49.926;8.404;2023-05-16T02:27:33;15.10;99.90
16767;DHT22;8501;49.926;8.404;2023-05-16T02:29:58;15.00;99.90
16767;DHT22;8501;49.926;8.404;2023-05-16T02:32:24;15.00;99.90
16767;DHT22;8501;49.926;8.404;2023-05-16T02:34:50;15.00;99.90
16767;DHT22;8501;49.926;8.404;2023-05-16T02:37:16;15.00;99.90
16767;DHT22;8501;49.926;8.404;2023-05-16T02:39:41;14.90;99.90
16767;DHT22;8501;49.926;8.404;2023-05-16T02:42:07;15.00;99.90
16767;DHT22;8501;49.926;8.404;2023-05-16T02:44:33;14.90;99.90
16767;DHT22;8501;49.926;8.404;2023-05-16T02:46:58;14.90;99.90
16767;DHT22;8501;49.926;8.404;2023-05-16T02:49:24;14.90;99.90
16767;DHT22;8501;49.926;8.404;2023-05-16T02:51:50;14.90;99.90
16767;DHT22;8501;49.926;8.404;2023-05-16T02:54:16;14.90;99.90
16767;DHT22;8501;49.926;8.404;2023-05-16T02:56:41;14.90;99.90
16767;DHT22;8501;49.926;8.404;2023-05-16T02:59:07;14.90;99.90
16767;DHT22;8501;49.926;8.404;2023-05-16T03:01:33;14.80;99.90
16767;DHT22;8501;49.926;8.404;2023-05-16T03:03:59;14.80;99.90
16767;DHT22;8501;49.926;8.404;2023-05-16T03:06:25;14.70;99.90
16767;DHT22;8501;49.926;8.404;2023-05-16T03:08:50;14.70;99.90
16767;DHT22;8501;49.926;8.404;2023-05-16T03:11:17;14.70;99.90
16767;DHT22;8501;49.926;8.404;2023-05-16T03:13:46;14.60;99.90
16767;DHT22;8501;49.926;8.404;2023-05-16T03:16:12;14.80;99.90
16767;DHT22;8501;49.926;8.404;2023-05-16T03:18:37;14.80;99.90
16767;DHT22;8501;49.926;8.404;2023-05-16T03:21:03;14.80;99.90
16767;DHT22;8501;49.926;8.404;2023-05-16T03:23:28;14.80;99.90
16767;DHT22;8501;49.926;8.404;2023-05-16T03:25:54;14.80;99.90
16767;DHT22;8501;49.926;8.404;2023-05-16T03:28:20;14.80;99.90
16767;DHT22;8501;49.926;8.404;2023-05-16T03:30:46;14.70;99.90
16767;DHT22;8501;49.926;8.404;2023-05-16T03:33:11;14.80;99.90
16767;DHT22;8501;49.926;8.404;2023-05-16T03:35:37;14.70;99.90
16767;DHT22;8501;49.926;8.404;2023-05-16T03:38:03;14.70;99.90
16767;DHT22;8501;49.926;8.404;2023-05-16T03:40:29;14.80;99.90
16767;DHT22;8501;49.926;8.404;2023-05-16T03:42:54;14.80;99.90
16767;DHT22;8501;49.926;8.404;2023-05-16T03:45:20;14.80;99.90
16767;DHT22;8501;49.926;8.404;2023-05-16T03:47:47;14.80;99.90
16767;DHT22;8501;49.926;8.404;2023-05-16T03:50:13;14.80;99.90
16767;DHT22;8501;49.926;8.404;2023-05-16T03:52:39;14.80;99.90
16767;DHT22;8501;49.926;8.404;2023-05-16T03:55:05;14.70;99.90
16767;DHT22;8501;49.926;8.404;2023-05-16T03:57:31;14.80;99.90
16767;DHT22;8501;49.926;8.404;2023-05-16T03:59:57;14.80;99.90
16767;DHT22;8501;49.926;8.404;2023-05-16T04:02:23;14.80;99.90
16767;DHT22;8501;49.926;8.404;2023-05-16T04:04:48;14.70;99.90
16767;DHT22;8501;49.926;8.404;2023-05-16T04:07:14;14.60;99.90
16767;DHT22;8501;49.926;8.404;2023-05-16T04:09:39;14.70;99.90
16767;DHT22;8501;49.926;8.404;2023-05-16T04:12:05;14.70;99.90
16767;DHT22;8501;49.926;8.404;2023-05-16T04:14:32;14.70;99.90
16767;DHT22;8501;49.926;8.404;2023-05-16T04:16:58;14.70;99.90
16767;DHT22;8501;49.926;8.404;2023-05-16T04:19:24;14.70;99.90
16767;DHT22;8501;49.926;8.404;2023-05-16T04:21:49;14.70;99.90
16767;DHT22;8501;49.926;8.404;2023-05-16T04:24:15;14.70;99.90
16767;DHT22;8501;49.926;8.404;2023-05-16T04:26:40;14.70;99.90
16767;DHT22;8501;49.926;8.404;2023-05-16T04:29:06;14.70;99.90
16767;DHT22;8501;49.926;8.404;2023-05-16T04:31:32;14.70;99.90
16767;DHT22;8501;49.926;8.404;2023-05-16T04:33:59;14.70;99.90
16767;DHT22;8501;49.926;8.404;2023-05-16T04:36:25;14.70;99.90
16767;DHT22;8501;49.926;8.404;2023-05-16T04:38:55;14.60;99.90
16767;DHT22;8501;49.926;8.404;2023-05-16T04:41:21;14.60;99.90
16767;DHT22;8501;49.926;8.404;2023-05-16T04:43:48;14.70;99.90
16767;DHT22;8501;49.926;8.404;2023-05-16T04:46:13;14.70;99.90
16767;DHT22;8501;49.926;8.404;2023-05-16T04:48:42;14.70;99.90
16767;DHT22;8501;49.926;8.404;2023-05-16T04:51:07;14.70;99.90
16767;DHT22;8501;49.926;8.404;2023-05-16T04:53:33;14.70;99.90
16767;DHT22;8501;49.926;8.404;2023-05-16T04:55:59;14.60;99.90
16767;DHT22;8501;49.926;8.404;2023-05-16T04:58:25;14.70;99.90
16767;DHT22;8501;49.926;8.404;2023-05-16T05:00:51;14.60;99.90
16767;DHT22;8501;49.926;8.404;2023-05-16T05:03:17;14.60;99.90
16767;DHT22;8501;49.926;8.404;2023-05-16T05:05:42;14.70;99.90
16767;DHT22;8501;49.926;8.404;2023-05-16T05:08:08;14.70;99.90
16767;DHT22;8501;49.926;8.404;2023-05-16T05:10:34;14.70;99.90
16767;DHT22;8501;49.926;8.404;2023-05-16T05:13:00;14.60;99.90
16767;DHT22;8501;49.926;8.404;2023-05-16T05:15:26;14.60;99.90
16767;DHT22;8501;49.926;8.404;2023-05-16T05:17:52;14.60;99.90
16767;DHT22;8501;49.926;8.404;2023-05-16T05:20:17;14.60;99.90
16767;DHT22;8501;49.926;8.404;2023-05-16T05:22:43;14.60;99.90
16767;DHT22;8501;49.926;8.404;2023-05-16T05:25:09;14.60;99.90
16767;DHT22;8501;49.926;8.404;2023-05-16T05:27:35;14.60;99.90
16767;DHT22;8501;49.926;8.404;2023-05-16T05:30:02;14.60;99.90
16767;DHT22;8501;49.926;8.404;2023-05-16T05:32:28;14.60;99.90
16767;DHT22;8501;49.926;8.404;2023-05-16T05:34:53;14.60;99.90
16767;DHT22;8501;49.926;8.404;2023-05-16T05:37:19;14.70;99.90
16767;DHT22;8501;49.926;8.404;2023-05-16T05:39:44;14.70;99.90
16767;DHT22;8501;49.926;8.404;2023-05-16T05:42:10;14.60;99.90
16767;DHT22;8501;49.926;8.404;2023-05-16T05:44:36;14.70;99.90
16767;DHT22;8501;49.926;8.404;2023-05-16T05:47:03;14.50;99.90
16767;DHT22;8501;49.926;8.404;2023-05-16T05:49:29;14.60;99.90
16767;DHT22;8501;49.926;8.404;2023-05-16T05:51:55;14.60;99.90
16767;DHT22;8501;49.926;8.404;2023-05-16T05:54:21;14.60;99.90
16767;DHT22;8501;49.926;8.404;2023-05-16T05:56:47;14.70;99.90
16767;DHT22;8501;49.926;8.404;2023-05-16T05:59:13;14.80;99.90
16767;DHT22;8501;49.926;8.404;2023-05-16T06:01:39;14.80;99.90
16767;DHT22;8501;49.926;8.404;2023-05-16T06:04:05;14.80;99.90
16767;DHT22;8501;49.926;8.404;2023-05-16T06:06:30;14.80;99.90
16767;DHT22;8501;49.926;8.404;2023-05-16T06:08:57;14.70;99.90
16767;DHT22;8501;49.926;8.404;2023-05-16T06:11:22;14.70;99.90
16767;DHT22;8501;49.926;8.404;2023-05-16T06:13:50;14.50;99.90
16767;DHT22;8501;49.926;8.404;2023-05-16T06:16:16;14.40;99.90
16767;DHT22;8501;49.926;8.404;2023-05-16T06:18:41;14.60;99.90
16767;DHT22;8501;49.926;8.404;2023-05-16T06:21:07;14.50;99.90
16767;DHT22;8501;49.926;8.404;2023-05-16T06:23:33;14.50;99.90
16767;DHT22;8501;49.926;8.404;2023-05-16T06:26:00;14.60;99.90
16767;DHT22;8501;49.926;8.404;2023-05-16T06:28:26;14.60;99.90
16767;DHT22;8501;49.926;8.404;2023-05-16T06:30:51;14.60;99.90
16767;DHT22;8501;49.926;8.404;2023-05-16T06:33:17;14.60;99.90
16767;DHT22;8501;49.926;8.404;2023-05-16T06:35:43;14.60;99.90
16767;DHT22;8501;49.926;8.404;2023-05-16T06:38:09;14.50;99.90
16767;DHT22;8501;49.926;8.404;2023-05-16T06:40:37;14.50;99.90
16767;DHT22;8501;49.926;8.404;2023-05-16T06:43:03;14.40;99.90
16767;DHT22;8501;49.926;8.404;2023-05-16T06:45:28;14.40;99.90
16767;DHT22;8501;49.926;8.404;2023-05-16T06:47:54;14.30;99.90
16767;DHT22;8501;49.926;8.404;2023-05-16T06:50:21;14.30;99.90
16767;DHT22;8501;49.926;8.404;2023-05-16T06:52:47;14.30;99.90
16767;DHT22;8501;49.926;8.404;2023-05-16T06:55:12;14.20;99.90
16767;DHT22;8501;49.926;8.404;2023-05-16T06:57:38;14.20;99.90
16767;DHT22;8501;49.926;8.404;2023-05-16T07:00:04;14.30;99.90
16767;DHT22;8501;49.926;8.404;2023-05-16T07:02:30;14.20;99.90
16767;DHT22;8501;49.926;8.404;2023-05-16T07:04:56;14.30;99.90
16767;DHT22;8501;49.926;8.404;2023-05-16T07:07:21;14.10;99.90
16767;DHT22;8501;49.926;8.404;2023-05-16T07:09:47;14.10;99.90
16767;DHT22;8501;49.926;8.404;2023-05-16T07:12:12;14.10;99.90
16767;DHT22;8501;49.926;8.404;2023-05-16T07:14:38;14.20;99.90
16767;DHT22;8501;49.926;8.404;2023-05-16T07:17:04;14.10;99.90
16767;DHT22;8501;49.926;8.404;2023-05-16T07:19:30;14.10;99.90
16767;DHT22;8501;49.926;8.404;2023-05-16T07:21:56;14.20;99.90
16767;DHT22;8501;49.926;8.404;2023-05-16T07:24:22;14.10;99.90
16767;DHT22;8501;49.926;8.404;2023-05-16T07:26:48;14.10;99.90
16767;DHT22;8501;49.926;8.404;2023-05-16T07:29:13;14.00;99.90
16767;DHT22;8501;49.926;8.404;2023-05-16T07:31:39;14.00;99.90
16767;DHT22;8501;49.926;8.404;2023-05-16T07:34:05;14.10;99.90
16767;DHT22;8501;49.926;8.404;2023-05-16T07:36:31;14.00;99.90
16767;DHT22;8501;49.926;8.404;2023-05-16T07:38:56;14.00;99.90
16767;DHT22;8501;49.926;8.404;2023-05-16T07:41:22;14.10;99.90
16767;DHT22;8501;49.926;8.404;2023-05-16T07:43:48;14.00;99.90
16767;DHT22;8501;49.926;8.404;2023-05-16T07:46:14;14.00;99.90
16767;DHT22;8501;49.926;8.404;2023-05-16T07:48:40;14.00;99.90
16767;DHT22;8501;49.926;8.404;2023-05-16T07:51:05;14.10;99.90
16767;DHT22;8501;49.926;8.404;2023-05-16T07:53:31;14.00;99.90
16767;DHT22;8501;49.926;8.404;2023-05-16T07:55:57;13.90;99.90
16767;DHT22;8501;49.926;8.404;2023-05-16T07:58:22;14.00;99.90
16767;DHT22;8501;49.926;8.404;2023-05-16T08:00:48;14.00;99.90
16767;DHT22;8501;49.926;8.404;2023-05-16T08:03:13;14.20;99.90
16767;DHT22;8501;49.926;8.404;2023-05-16T08:05:39;14.00;99.90
16767;DHT22;8501;49.926;8.404;2023-05-16T08:08:05;14.10;99.90
16767;DHT22;8501;49.926;8.404;2023-05-16T08:10:30;14.10;99.90
16767;DHT22;8501;49.926;8.404;2023-05-16T08:12:56;14.10;99.90
16767;DHT22;8501;49.926;8.404;2023-05-16T08:15:21;14.10;99.90
16767;DHT22;8501;49.926;8.404;2023-05-16T08:17:47;14.00;99.90
16767;DHT22;8501;49.926;8.404;2023-05-16T08:20:12;14.00;99.90
16767;DHT22;8501;49.926;8.404;2023-05-16T08:22:38;14.00;99.90
16767;DHT22;8501;49.926;8.404;2023-05-16T08:25:04;14.00;99.90
16767;DHT22;8501;49.926;8.404;2023-05-16T08:27:30;13.90;99.90
16767;DHT22;8501;49.926;8.404;2023-05-16T08:29:55;13.90;99.90
16767;DHT22;8501;49.926;8.404;2023-05-16T08:32:21;13.90;99.90
16767;DHT22;8501;49.926;8.404;2023-05-16T08:34:47;13.90;99.90
16767;DHT22;8501;49.926;8.404;2023-05-16T08:37:13;13.90;99.90
16767;DHT22;8501;49.926;8.404;2023-05-16T08:39:38;13.90;99.90
16767;DHT22;8501;49.926;8.404;2023-05-16T08:42:05;14.00;99.90
16767;DHT22;8501;49.926;8.404;2023-05-16T08:44:31;13.90;99.90
16767;DHT22;8501;49.926;8.404;2023-05-16T08:46:56;13.90;99.90
16767;DHT22;8501;49.926;8.404;2023-05-16T08:49:26;13.90;99.90
16767;DHT22;8501;49.926;8.404;2023-05-16T08:51:56;13.90;99.90
16767;DHT22;8501;49.926;8.404;2023-05-16T08:54:24;14.00;99.90
16767;DHT22;8501;49.926;8.404;2023-05-16T08:56:50;14.00;99.90
16767;DHT22;8501;49.926;8.404;2023-05-16T08:59:16;13.90;99.90
16767;DHT22;8501;49.926;8.404;2023-05-16T09:01:43;13.90;99.90
16767;DHT22;8501;49.926;8.404;2023-05-16T09:04:09;13.80;99.90
16767;DHT22;8501;49.926;8.404;2023-05-16T09:06:36;14.00;99.90
16767;DHT22;8501;49.926;8.404;2023-05-16T09:09:02;14.00;99.90
16767;DHT22;8501;49.926;8.404;2023-05-16T09:11:28;14.00;99.90
16767;DHT22;8501;49.926;8.404;2023-05-16T09:13:54;14.00;99.90
16767;DHT22;8501;49.926;8.404;2023-05-16T09:16:23;14.10;99.90
16767;DHT22;8501;49.926;8.404;2023-05-16T09:18:57;14.10;99.90
16767;DHT22;8501;49.926;8.404;2023-05-16T09:21:29;14.10;99.90
16767;DHT22;8501;49.926;8.404;2023-05-16T09:24:01;14.20;99.90
16767;DHT22;8501;49.926;8.404;2023-05-16T09:26:27;14.20;99.90
16767;DHT22;8501;49.926;8.404;2023-05-16T09:28:53;14.20;99.90
16767;DHT22;8501;49.926;8.404;2023-05-16T09:31:24;14.10;99.90
16767;DHT22;8501;49.926;8.404;2023-05-16T09:34:01;14.00;99.90
16767;DHT22;8501;49.926;8.404;2023-05-16T09:36:27;14.10;99.90
16767;DHT22;8501;49.926;8.404;2023-05-16T09:38:52;14.10;99.90
16767;DHT22;8501;49.926;8.404;2023-05-16T09:41:20;14.20;99.90
16767;DHT22;8501;49.926;8.404;2023-05-16T09:43:46;14.20;99.90
16767;DHT22;8501;49.926;8.404;2023-05-16T09:46:16;14.20;99.90
16767;DHT22;8501;49.926;8.404;2023-05-16T09:48:46;14.30;99.90
16767;DHT22;8501;49.926;8.404;2023-05-16T09:51:12;14.30;99.90
16767;DHT22;8501;49.926;8.404;2023-05-16T09:53:39;14.30;99.90
16767;DHT22;8501;49.926;8.404;2023-05-16T09:56:07;14.10;99.90
16767;DHT22;8501;49.926;8.404;2023-05-16T09:58:36;14.20;99.90
16767;DHT22;8501;49.926;8.404;2023-05-16T10:01:02;14.30;99.90
16767;DHT22;8501;49.926;8.404;2023-05-16T10:03:28;14.30;99.90
16767;DHT22;8501;49.926;8.404;2023-05-16T10:05:54;14.30;99.90
16767;DHT22;8501;49.926;8.404;2023-05-16T10:08:21;14.40;99.90
16767;DHT22;8501;49.926;8.404;2023-05-16T10:10:51;14.40;99.90
16767;DHT22;8501;49.926;8.404;2023-05-16T10:13:19;14.30;99.90
16767;DHT22;8501;49.926;8.404;2023-05-16T10:15:48;14.30;99.90
16767;DHT22;8501;49.926;8.404;2023-05-16T10:18:16;14.30;99.90
16767;DHT22;8501;49.926;8.404;2023-05-16T10:20:44;14.40;99.90
16767;DHT22;8501;49.926;8.404;2023-05-16T10:23:15;14.40;99.90
16767;DHT22;8501;49.926;8.404;2023-05-16T10:25:41;14.50;99.90
16767;DHT22;8501;49.926;8.404;2023-05-16T10:28:10;14.30;99.90
16767;DHT22;8501;49.926;8.404;2023-05-16T10:30:40;14.30;99.90
16767;DHT22;8501;49.926;8.404;2023-05-16T10:33:06;14.30;99.90
16767;DHT22;8501;49.926;8.404;2023-05-16T10:35:33;14.20;99.90
16767;DHT22;8501;49.926;8.404;2023-05-16T10:37:59;14.20;99.90
16767;DHT22;8501;49.926;8.404;2023-05-16T10:40:26;14.10;99.90
16767;DHT22;8501;49.926;8.404;2023-05-16T10:43:01;14.10;99.90
16767;DHT22;8501;49.926;8.404;2023-05-16T10:45:27;14.10;99.90
16767;DHT22;8501;49.926;8.404;2023-05-16T10:47:57;14.10;99.90
16767;DHT22;8501;49.926;8.404;2023-05-16T10:50:34;14.20;99.90
16767;DHT22;8501;49.926;8.404;2023-05-16T10:53:15;14.20;99.90
16767;DHT22;8501;49.926;8.404;2023-05-16T11:04:09;14.30;99.90
16767;DHT22;8501;49.926;8.404;2023-05-16T11:06:50;14.50;99.90
16767;DHT22;8501;49.926;8.404;2023-05-16T11:14:07;14.50;99.90
16767;DHT22;8501;49.926;8.404;2023-05-16T11:16:34;14.50;99.90
16767;DHT22;8501;49.926;8.404;2023-05-16T11:19:07;14.60;99.90
16767;DHT22;8501;49.926;8.404;2023-05-16T11:24:33;14.60;99.90
16767;DHT22;8501;49.926;8.404;2023-05-16T11:27:00;14.60;99.90
16767;DHT22;8501;49.926;8.404;2023-05-16T11:29:36;14.60;99.90
16767;DHT22;8501;49.926;8.404;2023-05-16T11:32:03;14.60;99.90
16767;DHT22;8501;49.926;8.404;2023-05-16T11:34:30;14.60;99.90
16767;DHT22;8501;49.926;8.404;2023-05-16T11:36:56;14.60;99.90
16767;DHT22;8501;49.926;8.404;2023-05-16T11:39:22;14.70;99.90
16767;DHT22;8501;49.926;8.404;2023-05-16T11:41:52;14.70;99.90
16767;DHT22;8501;49.926;8.404;2023-05-16T11:44:17;14.70;99.90
16767;DHT22;8501;49.926;8.404;2023-05-16T11:46:43;14.70;99.90
16767;DHT22;8501;49.926;8.404;2023-05-16T11:49:09;14.80;99.90
16767;DHT22;8501;49.926;8.404;2023-05-16T11:51:38;14.80;99.90
16767;DHT22;8501;49.926;8.404;2023-05-16T11:54:04;14.90;99.90
16767;DHT22;8501;49.926;8.404;2023-05-16T11:56:30;14.90;99.90
16767;DHT22;8501;49.926;8.404;2023-05-16T11:58:58;15.00;99.90
16767;DHT22;8501;49.926;8.404;2023-05-16T12:01:24;15.00;99.90
16767;DHT22;8501;49.926;8.404;2023-05-16T12:03:55;15.00;99.90
16767;DHT22;8501;49.926;8.404;2023-05-16T12:06:22;15.10;99.90
16767;DHT22;8501;49.926;8.404;2023-05-16T12:08:51;15.20;99.90
16767;DHT22;8501;49.926;8.404;2023-05-16T12:11:17;15.30;99.90
16767;DHT22;8501;49.926;8.404;2023-05-16T12:13:43;15.30;99.90
16767;DHT22;8501;49.926;8.404;2023-05-16T12:16:10;15.40;99.90
16767;DHT22;8501;49.926;8.404;2023-05-16T12:18:37;15.50;99.90
16767;DHT22;8501;49.926;8.404;2023-05-16T12:21:04;15.60;99.90
16767;DHT22;8501;49.926;8.404;2023-05-16T12:23:32;15.70;99.90
16767;DHT22;8501;49.926;8.404;2023-05-16T12:25:58;15.80;99.90
16767;DHT22;8501;49.926;8.404;2023-05-16T12:28:31;16.00;99.90
16767;DHT22;8501;49.926;8.404;2023-05-16T12:30:58;16.10;99.90
16767;DHT22;8501;49.926;8.404;2023-05-16T12:33:24;16.30;99.90
16767;DHT22;8501;49.926;8.404;2023-05-16T12:35:49;16.30;99.90
16767;DHT22;8501;49.926;8.404;2023-05-16T12:38:18;16.30;99.90
16767;DHT22;8501;49.926;8.404;2023-05-16T12:40:45;16.40;99.90
16767;DHT22;8501;49.926;8.404;2023-05-16T12:43:21;16.40;99.90
16767;DHT22;8501;49.926;8.404;2023-05-16T12:45:56;16.40;99.90
16767;DHT22;8501;49.926;8.404;2023-05-16T12:48:32;16.40;99.90
16767;DHT22;8501;49.926;8.404;2023-05-16T12:51:26;16.40;99.90
16767;DHT22;8501;49.926;8.404;2023-05-16T12:53:55;16.60;99.90
16767;DHT22;8501;49.926;8.404;2023-05-16T12:56:21;16.90;99.90
16767;DHT22;8501;49.926;8.404;2023-05-16T12:58:49;17.10;99.90
16767;DHT22;8501;49.926;8.404;2023-05-16T13:01:18;17.20;99.90
16767;DHT22;8501;49.926;8.404;2023-05-16T13:03:43;17.10;99.90
16767;DHT22;8501;49.926;8.404;2023-05-16T13:06:09;17.30;99.90
16767;DHT22;8501;49.926;8.404;2023-05-16T13:08:35;17.30;99.90
16767;DHT22;8501;49.926;8.404;2023-05-16T13:11:01;17.50;99.90
16767;DHT22;8501;49.926;8.404;2023-05-16T13:13:26;17.70;99.90
16767;DHT22;8501;49.926;8.404;2023-05-16T13:15:52;17.70;99.90
16767;DHT22;8501;49.926;8.404;2023-05-16T13:18:17;17.70;99.90
16767;DHT22;8501;49.926;8.404;2023-05-16T13:20:43;17.70;99.90
16767;DHT22;8501;49.926;8.404;2023-05-16T13:23:09;17.60;99.90
16767;DHT22;8501;49.926;8.404;2023-05-16T13:25:34;17.50;99.90
16767;DHT22;8501;49.926;8.404;2023-05-16T13:28:00;17.60;99.90
16767;DHT22;8501;49.926;8.404;2023-05-16T13:30:25;17.80;99.90
16767;DHT22;8501;49.926;8.404;2023-05-16T13:32:51;17.90;99.90
16767;DHT22;8501;49.926;8.404;2023-05-16T13:35:17;17.80;99.90
16767;DHT22;8501;49.926;8.404;2023-05-16T13:37:43;17.90;99.90
16767;DHT22;8501;49.926;8.404;2023-05-16T13:40:09;17.90;99.90
16767;DHT22;8501;49.926;8.404;2023-05-16T13:42:35;18.10;99.90
16767;DHT22;8501;49.926;8.404;2023-05-16T13:45:05;18.30;99.90
16767;DHT22;8501;49.926;8.404;2023-05-16T13:47:31;18.50;99.90
16767;DHT22;8501;49.926;8.404;2023-05-16T13:49:59;18.70;99.90
16767;DHT22;8501;49.926;8.404;2023-05-16T13:52:32;18.70;99.90
16767;DHT22;8501;49.926;8.404;2023-05-16T13:54:57;18.90;99.90
16767;DHT22;8501;49.926;8.404;2023-05-16T13:57:23;18.80;99.90
16767;DHT22;8501;49.926;8.404;2023-05-16T13:59:49;19.00;99.90
16767;DHT22;8501;49.926;8.404;2023-05-16T14:02:14;19.10;99.90
16767;DHT22;8501;49.926;8.404;2023-05-16T14:04:40;19.10;99.90
16767;DHT22;8501;49.926;8.404;2023-05-16T14:07:05;19.40;99.90
16767;DHT22;8501;49.926;8.404;2023-05-16T14:09:31;19.40;99.90
16767;DHT22;8501;49.926;8.404;2023-05-16T14:11:59;19.20;99.90
16767;DHT22;8501;49.926;8.404;2023-05-16T14:14:27;19.60;99.90
16767;DHT22;8501;49.926;8.404;2023-05-16T14:16:52;20.00;99.90
16767;DHT22;8501;49.926;8.404;2023-05-16T14:19:18;20.10;99.90
16767;DHT22;8501;49.926;8.404;2023-05-16T14:21:43;20.20;99.90
16767;DHT22;8501;49.926;8.404;2023-05-16T14:24:09;20.20;99.90
16767;DHT22;8501;49.926;8.404;2023-05-16T14:26:36;20.40;99.90
16767;DHT22;8501;49.926;8.404;2023-05-16T14:29:02;20.70;99.90
16767;DHT22;8501;49.926;8.404;2023-05-16T14:31:28;20.90;99.90
16767;DHT22;8501;49.926;8.404;2023-05-16T14:33:53;21.10;99.70
16767;DHT22;8501;49.926;8.404;2023-05-16T14:36:19;20.70;98.80
16767;DHT22;8501;49.926;8.404;2023-05-16T14:38:44;20.70;98.90
16767;DHT22;8501;49.926;8.404;2023-05-16T14:41:10;20.50;99.00
16767;DHT22;8501;49.926;8.404;2023-05-16T14:43:36;20.30;98.70
16767;DHT22;8501;49.926;8.404;2023-05-16T14:46:02;20.50;98.20
16767;DHT22;8501;49.926;8.404;2023-05-16T14:48:28;21.00;98.30
16767;DHT22;8501;49.926;8.404;2023-05-16T14:50:55;21.20;96.00
16767;DHT22;8501;49.926;8.404;2023-05-16T14:53:21;21.40;94.60
16767;DHT22;8501;49.926;8.404;2023-05-16T14:55:47;21.00;93.40
16767;DHT22;8501;49.926;8.404;2023-05-16T14:58:13;20.80;93.30
16767;DHT22;8501;49.926;8.404;2023-05-16T15:00:38;21.10;96.50
16767;DHT22;8501;49.926;8.404;2023-05-16T15:03:04;21.20;95.80
16767;DHT22;8501;49.926;8.404;2023-05-16T15:05:30;20.70;96.70
16767;DHT22;8501;49.926;8.404;2023-05-16T15:07:55;21.10;95.90
16767;DHT22;8501;49.926;8.404;2023-05-16T15:10:21;21.20;93.80
16767;DHT22;8501;49.926;8.404;2023-05-16T15:12:46;21.40;92.60
16767;DHT22;8501;49.926;8.404;2023-05-16T15:15:12;21.60;91.90
16767;DHT22;8501;49.926;8.404;2023-05-16T15:17:40;21.20;92.00
16767;DHT22;8501;49.926;8.404;2023-05-16T15:20:07;20.60;92.00
16767;DHT22;8501;49.926;8.404;2023-05-16T15:22:34;20.70;92.30
16767;DHT22;8501;49.926;8.404;2023-05-16T15:25:00;20.80;93.10
16767;DHT22;8501;49.926;8.404;2023-05-16T15:27:27;20.90;93.10
16767;DHT22;8501;49.926;8.404;2023-05-16T15:29:53;21.00;92.60
16767;DHT22;8501;49.926;8.404;2023-05-16T15:32:18;21.00;92.70
16767;DHT22;8501;49.926;8.404;2023-05-16T15:34:44;21.00;92.20
16767;DHT22;8501;49.926;8.404;2023-05-16T15:37:10;20.70;92.50
16767;DHT22;8501;49.926;8.404;2023-05-16T15:39:36;20.70;93.50
16767;DHT22;8501;49.926;8.404;2023-05-16T15:42:01;20.50;92.80
16767;DHT22;8501;49.926;8.404;2023-05-16T15:44:30;20.40;92.80
16767;DHT22;8501;49.926;8.404;2023-05-16T15:46:56;20.10;93.40
16767;DHT22;8501;49.926;8.404;2023-05-16T15:49:22;20.10;93.50
16767;DHT22;8501;49.926;8.404;2023-05-16T15:51:48;20.10;93.80
16767;DHT22;8501;49.926;8.404;2023-05-16T15:54:14;20.00;93.10
16767;DHT22;8501;49.926;8.404;2023-05-16T15:56:40;19.70;92.80
16767;DHT22;8501;49.926;8.404;2023-05-16T15:59:05;19.60;92.90
16767;DHT22;8501;49.926;8.404;2023-05-16T16:01:31;19.50;92.10
16767;DHT22;8501;49.926;8.404;2023-05-16T16:03:57;19.50;92.60
16767;DHT22;8501;49.926;8.404;2023-05-16T16:06:22;19.40;92.10
16767;DHT22;8501;49.926;8.404;2023-05-16T16:08:48;19.40;92.80